createdAt,value
2023-02-02T00:00:29.447Z,100313.19
2023-02-02T00:03:32.279Z,100309.97
2023-02-02T00:06:35.123Z,100301.81
2023-02-02T00:09:37.984Z,100298.06
2023-02-02T00:12:40.667Z,100309.84
2023-02-02T00:15:43.429Z,100291.56
2023-02-02T00:18:46.222Z,100293.31
2023-02-02T00:21:49.298Z,100307.50
2023-02-02T00:24:52.027Z,100311.69
2023-02-02T00:27:54.991Z,100309.97
2023-02-02T00:30:57.838Z,100318.78
2023-02-02T00:34:00.855Z,100319.72
2023-02-02T00:37:04.581Z,100314.50
2023-02-02T00:40:07.891Z,100322.53
2023-02-02T00:43:10.960Z,100328.09
2023-02-02T00:46:18.869Z,100312.16
2023-02-02T00:49:22.072Z,100314.38
2023-02-02T00:52:25.087Z,100301.56
2023-02-02T00:55:27.980Z,100303.78
2023-02-02T00:58:30.800Z,100311.94
2023-02-02T01:01:33.598Z,100312.16
2023-02-02T01:04:36.512Z,100308.69
2023-02-02T01:07:40.495Z,100297.97
2023-02-02T01:10:43.170Z,100295.28
2023-02-02T01:13:45.974Z,100293.31
2023-02-02T01:16:48.956Z,100279.22
2023-02-02T01:19:51.809Z,100274.09
2023-02-02T01:22:54.809Z,100259.69
2023-02-02T01:25:59.418Z,100244.16
2023-02-02T01:29:02.169Z,100252.44
2023-02-02T01:32:05.574Z,100264.06
2023-02-02T01:35:10.348Z,100267.81
2023-02-02T01:38:13.500Z,100257.88
2023-02-02T01:41:22.734Z,100246.09
2023-02-02T01:44:53.379Z,100245.84
2023-02-02T01:47:59.992Z,100237.72
2023-02-02T01:51:18.067Z,100238.66
2023-02-02T01:54:29.873Z,100219.78
2023-02-02T01:57:41.144Z,100211.16
2023-02-02T02:00:46.940Z,100209.63
2023-02-02T02:03:50.037Z,100196.72
2023-02-02T02:06:53.925Z,100205.69
2023-02-02T02:09:56.873Z,100201.91
2023-02-02T02:12:59.942Z,100204.97
2023-02-02T02:16:20.778Z,100208.53
2023-02-02T02:19:28.372Z,100180.41
2023-02-02T02:23:27.384Z,100214.38
2023-02-02T02:27:03.231Z,100192.88
2023-02-02T02:30:24.636Z,100179.75
2023-02-02T02:33:54.453Z,100170.81
2023-02-02T02:37:08.815Z,100173.91
2023-02-02T02:40:22.274Z,100166.06
2023-02-02T02:43:34.659Z,100187.97
2023-02-02T02:46:38.791Z,100200.63
2023-02-02T02:49:46.136Z,100196.31
2023-02-02T02:52:52.514Z,100208.50
2023-02-02T02:56:26.867Z,100212.84
2023-02-02T02:59:48.131Z,100229.97
2023-02-02T03:03:45.919Z,100203.72
2023-02-02T03:06:55.320Z,100249.88
2023-02-02T03:10:01.484Z,100237.91
2023-02-02T03:13:09.768Z,100231.28
2023-02-02T03:16:12.537Z,100247.00
2023-02-02T03:19:15.238Z,100225.19
2023-02-02T03:22:18.006Z,100214.25
2023-02-02T03:25:20.682Z,100204.06
2023-02-02T03:28:25.331Z,100202.84
2023-02-02T03:31:29.301Z,100207.19
2023-02-02T03:34:32.014Z,100202.09
2023-02-02T03:37:35.243Z,100198.94
2023-02-02T03:40:38.471Z,100204.44
2023-02-02T03:43:41.295Z,100213.72
2023-02-02T03:46:44.033Z,100228.78
2023-02-02T03:49:46.832Z,100239.63
2023-02-02T03:52:49.635Z,100237.25
2023-02-02T03:55:52.397Z,100225.44
2023-02-02T03:58:55.139Z,100243.81
2023-02-02T04:01:58.189Z,100244.50
2023-02-02T04:05:00.920Z,100269.19
2023-02-02T04:08:03.707Z,100270.59
2023-02-02T04:11:10.385Z,100279.75
2023-02-02T04:14:13.170Z,100258.59
2023-02-02T04:17:15.891Z,100251.59
2023-02-02T04:20:18.887Z,100241.31
2023-02-02T04:23:21.611Z,100246.28
2023-02-02T04:26:27.473Z,100273.50
2023-02-02T04:29:30.224Z,100268.75
2023-02-02T04:32:32.983Z,100300.25
2023-02-02T04:35:35.679Z,100312.09
2023-02-02T04:38:38.443Z,100317.16
2023-02-02T04:41:41.160Z,100333.44
2023-02-02T04:44:45.899Z,100341.00
2023-02-02T04:47:48.633Z,100358.91
2023-02-02T04:50:51.387Z,100379.66
2023-02-02T04:53:54.075Z,100379.13
2023-02-02T04:56:56.850Z,100386.19
2023-02-02T04:59:59.579Z,100391.25
2023-02-02T05:03:02.350Z,100404.69
2023-02-02T05:06:05.879Z,100408.34
2023-02-02T05:09:08.786Z,100401.00
2023-02-02T05:12:11.553Z,100402.44
2023-02-02T05:15:14.273Z,100412.94
2023-02-02T05:18:17.195Z,100417.00
2023-02-02T05:21:20.760Z,100417.13
2023-02-02T05:24:23.549Z,100404.78
2023-02-02T05:27:26.319Z,100410.72
2023-02-02T05:30:29.309Z,100419.69
2023-02-02T05:33:32.502Z,100417.59
2023-02-02T05:36:35.250Z,100422.81
2023-02-02T05:39:38.051Z,100418.50
2023-02-02T05:42:40.883Z,100413.00
2023-02-02T05:45:43.720Z,100410.25
2023-02-02T05:48:46.461Z,100408.63
2023-02-02T05:51:53.998Z,100408.72
2023-02-02T05:54:56.739Z,100390.53
2023-02-02T05:57:59.539Z,100386.94
2023-02-02T06:01:02.535Z,100356.53
2023-02-02T06:04:05.363Z,100357.47
2023-02-02T06:07:08.637Z,100366.31
2023-02-02T06:10:11.911Z,100372.97
2023-02-02T06:13:14.689Z,100352.34
2023-02-02T06:16:17.467Z,100348.88
2023-02-02T06:19:20.280Z,100343.03
2023-02-02T06:22:23.071Z,100347.69
2023-02-02T06:25:26.258Z,100327.28
2023-02-02T06:28:31.514Z,100348.50
2023-02-02T06:31:34.573Z,100332.53
2023-02-02T06:34:37.453Z,100338.59
2023-02-02T06:37:40.811Z,100328.44
2023-02-02T06:40:43.626Z,100344.06
2023-02-02T06:43:47.182Z,100333.47
2023-02-02T06:46:49.977Z,100343.59
2023-02-02T06:49:52.800Z,100354.44
2023-02-02T06:52:57.808Z,100357.00
2023-02-02T06:56:03.401Z,100362.59
2023-02-02T06:59:06.256Z,100365.38
2023-02-02T07:02:11.984Z,100366.53
2023-02-02T07:05:14.851Z,100354.97
2023-02-02T07:08:17.977Z,100355.66
2023-02-02T07:11:21.046Z,100346.19
2023-02-02T07:14:24.400Z,100355.06
2023-02-02T07:17:27.149Z,100360.09
2023-02-02T07:20:29.935Z,100359.16
2023-02-02T07:23:34.161Z,100353.16
2023-02-02T07:26:37.028Z,100355.78
2023-02-02T07:29:40.073Z,100360.41
2023-02-02T07:32:50.162Z,100353.88
2023-02-02T07:35:53.168Z,100374.00
2023-02-02T07:38:57.595Z,100374.91
2023-02-02T07:42:00.425Z,100375.16
2023-02-02T07:45:24.705Z,100385.06
2023-02-02T07:48:31.168Z,100375.59
2023-02-02T07:51:33.904Z,100374.66
2023-02-02T07:54:36.941Z,100390.69
2023-02-02T07:57:39.686Z,100390.06
2023-02-02T08:00:42.699Z,100386.63
2023-02-02T08:03:45.764Z,100375.41
2023-02-02T08:06:48.718Z,100380.47
2023-02-02T08:09:52.048Z,100409.13
2023-02-02T08:12:54.908Z,100421.34
2023-02-02T08:15:58.632Z,100433.00
2023-02-02T08:19:01.582Z,100427.06
2023-02-02T08:22:04.445Z,100412.28
2023-02-02T08:25:08.005Z,100424.22
2023-02-02T08:28:10.800Z,100435.81
2023-02-02T08:31:19.035Z,100424.34
2023-02-02T08:34:21.928Z,100409.28
2023-02-02T08:37:24.740Z,100409.06
2023-02-02T08:40:27.480Z,100413.81
2023-02-02T08:43:30.488Z,100400.34
2023-02-02T08:46:33.303Z,100377.88
2023-02-02T08:49:36.154Z,100408.13
2023-02-02T08:52:38.897Z,100414.59
2023-02-02T08:55:41.754Z,100376.00
2023-02-02T08:58:46.901Z,100397.50
2023-02-02T09:01:49.690Z,100410.66
2023-02-02T09:04:52.606Z,100405.25
2023-02-02T09:07:55.385Z,100418.94
2023-02-02T09:11:10.142Z,100417.91
2023-02-02T09:14:14.230Z,100432.09
2023-02-02T09:17:16.898Z,100415.53
2023-02-02T09:20:20.620Z,100417.06
2023-02-02T09:23:23.488Z,100425.03
2023-02-02T09:26:29.956Z,100405.47
2023-02-02T09:29:32.779Z,100421.16
2023-02-02T09:32:35.541Z,100423.19
2023-02-02T09:35:38.320Z,100422.22
2023-02-02T09:38:42.116Z,100442.00
2023-02-02T09:41:56.083Z,100448.13
2023-02-02T09:45:22.793Z,100457.41
2023-02-02T09:48:29.285Z,100438.91
2023-02-02T09:51:41.615Z,100435.41
2023-02-02T09:54:48.773Z,100433.28
2023-02-02T09:58:13.263Z,100429.66
2023-02-02T10:01:20.801Z,100436.16
2023-02-02T10:04:34.194Z,100443.06
2023-02-02T10:07:41.631Z,100444.72
2023-02-02T10:10:47.190Z,100453.53
2023-02-02T10:13:53.055Z,100458.63
2023-02-02T10:17:03.410Z,100466.06
2023-02-02T10:20:21.375Z,100456.47
2023-02-02T10:23:44.661Z,100470.00
2023-02-02T10:26:50.967Z,100448.16
2023-02-02T10:30:01.961Z,100459.19
2023-02-02T10:33:16.690Z,100454.13
2023-02-02T10:36:34.821Z,100442.06
2023-02-02T10:40:09.230Z,100428.88
2023-02-02T10:43:46.605Z,100426.06
2023-02-02T10:46:55.867Z,100438.38
2023-02-02T10:50:07.578Z,100423.06
2023-02-02T10:53:14.465Z,100413.53
2023-02-02T10:56:22.678Z,100412.81
2023-02-02T10:59:32.580Z,100431.97
2023-02-02T11:02:35.501Z,100440.53
2023-02-02T11:05:57.009Z,100424.47
2023-02-02T11:09:01.349Z,100425.09
2023-02-02T11:12:28.270Z,100433.13
2023-02-02T11:15:31.476Z,100429.09
2023-02-02T11:18:34.232Z,100430.97
2023-02-02T11:21:38.729Z,100445.59
2023-02-02T11:24:47.499Z,100441.47
2023-02-02T11:27:50.272Z,100420.91
2023-02-02T11:30:53.893Z,100436.59
2023-02-02T11:34:20.768Z,100425.22
2023-02-02T11:37:25.059Z,100435.56
2023-02-02T11:40:30.766Z,100425.28
2023-02-02T11:43:52.864Z,100420.03
2023-02-02T11:46:57.496Z,100433.47
2023-02-02T11:50:02.589Z,100431.03
2023-02-02T11:53:06.986Z,100412.56
2023-02-02T11:56:18.930Z,100427.88
2023-02-02T11:59:42.120Z,100444.03
2023-02-02T12:02:49.559Z,100411.16
2023-02-02T12:05:52.571Z,100438.72
2023-02-02T12:08:59.186Z,100429.25
2023-02-02T12:12:04.795Z,100437.53
2023-02-02T12:15:19.961Z,100426.41
2023-02-02T12:18:48.087Z,100406.47
2023-02-02T12:22:19.738Z,100412.72
2023-02-02T12:26:04.555Z,100429.28
2023-02-02T12:29:28.827Z,100441.50
2023-02-02T12:33:01.941Z,100454.00
2023-02-02T12:36:17.447Z,100432.38
2023-02-02T12:39:22.674Z,100428.06
2023-02-02T12:42:57.802Z,100405.47
2023-02-02T12:46:11.715Z,100422.78
2023-02-02T12:49:32.794Z,100441.09
2023-02-02T12:52:47.540Z,100432.41
2023-02-02T12:56:09.725Z,100430.06
2023-02-02T12:59:24.283Z,100423.16
2023-02-02T13:02:40.555Z,100415.91
2023-02-02T13:06:01.250Z,100411.97
2023-02-02T13:09:12.598Z,100415.50
2023-02-02T13:12:20.114Z,100411.53
2023-02-02T13:15:34.239Z,100414.53
2023-02-02T13:19:01.327Z,100406.44
2023-02-02T13:22:10.700Z,100404.44
2023-02-02T13:25:31.011Z,100417.44
2023-02-02T13:28:56.803Z,100407.28
2023-02-02T13:32:25.146Z,100402.50
2023-02-02T13:35:50.125Z,100404.16
2023-02-02T13:39:01.628Z,100405.66
2023-02-02T13:42:17.045Z,100414.56
2023-02-02T13:45:44.406Z,100414.56
2023-02-02T13:49:35.857Z,100431.59
2023-02-02T13:53:12.382Z,100435.78
2023-02-02T13:56:49.400Z,100437.59
2023-02-02T14:00:13.171Z,100451.28
2023-02-02T14:03:38.527Z,100453.59
2023-02-02T14:06:57.391Z,100457.28
2023-02-02T14:10:00.301Z,100456.44
2023-02-02T14:13:45.471Z,100463.34
2023-02-02T14:16:50.256Z,100467.84
2023-02-02T14:19:56.315Z,100483.16
2023-02-02T14:22:58.972Z,100472.19
2023-02-02T14:26:07.015Z,100470.00
2023-02-02T14:29:35.034Z,100467.03
2023-02-02T14:32:42.930Z,100467.72
2023-02-02T14:35:45.540Z,100464.66
2023-02-02T14:38:55.892Z,100452.75
2023-02-02T14:42:45.187Z,100457.63
2023-02-02T14:45:50.164Z,100446.53
2023-02-02T14:48:57.323Z,100464.03
2023-02-02T14:52:03.052Z,100454.69
2023-02-02T14:55:06.371Z,100470.69
2023-02-02T14:58:09.898Z,100469.72
2023-02-02T15:01:25.326Z,100465.81
2023-02-02T15:04:29.384Z,100458.19
2023-02-02T15:07:32.027Z,100467.13
2023-02-02T15:10:53.740Z,100468.47
2023-02-02T15:14:07.118Z,100470.34
2023-02-02T15:17:42.061Z,100470.75
2023-02-02T15:20:50.155Z,100462.47
2023-02-02T15:23:53.309Z,100475.56
2023-02-02T15:27:00.344Z,100477.47
2023-02-02T15:30:07.722Z,100472.31
2023-02-02T15:33:31.312Z,100476.22
2023-02-02T15:36:38.095Z,100473.91
2023-02-02T15:39:46.088Z,100481.34
2023-02-02T15:42:57.511Z,100489.75
2023-02-02T15:46:07.786Z,100494.72
2023-02-02T15:49:33.182Z,100492.16
2023-02-02T15:52:47.136Z,100491.75
2023-02-02T15:55:50.755Z,100501.47
2023-02-02T15:58:55.769Z,100511.75
2023-02-02T16:02:26.529Z,100511.34
2023-02-02T16:05:31.980Z,100522.97
2023-02-02T16:08:37.937Z,100522.59
2023-02-02T16:11:44.914Z,100517.97
2023-02-02T16:14:51.695Z,100518.38
2023-02-02T16:18:02.603Z,100517.94
2023-02-02T16:21:14.887Z,100522.50
2023-02-02T16:24:44.070Z,100527.28
2023-02-02T16:27:48.853Z,100530.13
2023-02-02T16:30:53.027Z,100527.66
2023-02-02T16:33:57.039Z,100528.78
2023-02-02T16:37:32.334Z,100539.34
2023-02-02T16:40:35.482Z,100561.00
2023-02-02T16:43:40.894Z,100554.47
2023-02-02T16:46:49.549Z,100553.94
2023-02-02T16:50:12.983Z,100560.34
2023-02-02T16:53:24.253Z,100567.69
2023-02-02T16:56:40.327Z,100568.72
2023-02-02T16:59:48.584Z,100573.28
2023-02-02T17:03:07.862Z,100578.06
2023-02-02T17:06:10.737Z,100583.16
2023-02-02T17:09:34.588Z,100585.03
2023-02-02T17:12:38.139Z,100584.66
2023-02-02T17:15:41.006Z,100577.47
2023-02-02T17:18:44.034Z,100572.47
2023-02-02T17:21:49.537Z,100585.34
2023-02-02T17:24:53.215Z,100581.38
2023-02-02T17:27:58.652Z,100576.06
2023-02-02T17:31:08.572Z,100573.16
2023-02-02T17:34:16.148Z,100557.44
2023-02-02T17:37:19.018Z,100565.50
2023-02-02T17:40:24.042Z,100570.94
2023-02-02T17:43:27.704Z,100581.59
2023-02-02T17:46:33.341Z,100579.97
2023-02-02T17:49:36.158Z,100576.19
2023-02-02T17:52:39.360Z,100579.47
2023-02-02T17:55:44.150Z,100596.50
2023-02-02T17:58:47.040Z,100602.41
2023-02-02T18:01:50.697Z,100609.19
2023-02-02T18:04:53.480Z,100608.78
2023-02-02T18:07:56.485Z,100603.53
2023-02-02T18:11:00.267Z,100610.88
2023-02-02T18:14:03.098Z,100614.66
2023-02-02T18:17:08.347Z,100623.41
2023-02-02T18:20:15.380Z,100627.03
2023-02-02T18:23:18.966Z,100608.03
2023-02-02T18:26:23.064Z,100622.03
2023-02-02T18:29:26.042Z,100629.84
2023-02-02T18:32:28.804Z,100635.59
2023-02-02T18:35:31.771Z,100637.59
2023-02-02T18:38:34.912Z,100643.31
2023-02-02T18:41:37.603Z,100664.13
2023-02-02T18:44:40.311Z,100658.75
2023-02-02T18:47:43.281Z,100664.47
2023-02-02T18:50:46.157Z,100676.16
2023-02-02T18:53:49.542Z,100681.91
2023-02-02T18:56:52.571Z,100675.22
2023-02-02T18:59:55.503Z,100679.47
2023-02-02T19:02:58.451Z,100684.47
2023-02-02T19:06:20.481Z,100690.44
2023-02-02T19:09:24.874Z,100686.00
2023-02-02T19:12:29.445Z,100674.91
2023-02-02T19:15:42.913Z,100688.06
2023-02-02T19:18:47.155Z,100691.78
2023-02-02T19:22:02.004Z,100703.50
2023-02-02T19:25:11.546Z,100698.28
2023-02-02T19:28:23.307Z,100719.50
2023-02-02T19:31:26.341Z,100698.66
2023-02-02T19:34:33.347Z,100686.41
2023-02-02T19:37:40.086Z,100707.88
2023-02-02T19:40:44.157Z,100694.56
2023-02-02T19:43:48.816Z,100704.63
2023-02-02T19:46:52.999Z,100700.16
2023-02-02T19:49:56.781Z,100678.47
2023-02-02T19:52:59.918Z,100710.31
2023-02-02T19:56:22.207Z,100712.41
2023-02-02T19:59:30.387Z,100716.94
2023-02-02T20:03:01.551Z,100724.41
2023-02-02T20:06:05.065Z,100737.09
2023-02-02T20:09:16.928Z,100720.63
2023-02-02T20:12:28.631Z,100737.44
2023-02-02T20:15:32.704Z,100750.75
2023-02-02T20:18:48.736Z,100758.91
2023-02-02T20:21:53.693Z,100766.97
2023-02-02T20:24:58.024Z,100764.16
2023-02-02T20:28:08.383Z,100785.97
2023-02-02T20:31:19.884Z,100771.50
2023-02-02T20:34:29.566Z,100759.34
2023-02-02T20:37:36.089Z,100769.81
2023-02-02T20:40:39.031Z,100765.22
2023-02-02T20:43:42.008Z,100774.19
2023-02-02T20:46:45.057Z,100777.56
2023-02-02T20:49:47.968Z,100770.28
2023-02-02T20:52:52.016Z,100778.91
2023-02-02T20:55:58.312Z,100785.59
2023-02-02T20:59:01.416Z,100782.31
2023-02-02T21:02:05.477Z,100794.31
2023-02-02T21:05:08.428Z,100795.16
2023-02-02T21:08:11.297Z,100804.56
2023-02-02T21:11:14.219Z,100801.28
2023-02-02T21:14:17.308Z,100811.78
2023-02-02T21:17:20.319Z,100814.38
2023-02-02T21:20:23.038Z,100825.53
2023-02-02T21:23:25.824Z,100822.13
2023-02-02T21:26:30.906Z,100830.66
2023-02-02T21:29:33.936Z,100830.03
2023-02-02T21:32:37.030Z,100828.09
2023-02-02T21:35:39.834Z,100828.00
2023-02-02T21:38:42.558Z,100824.53
2023-02-02T21:41:46.146Z,100827.47
2023-02-02T21:44:56.452Z,100847.50
2023-02-02T21:48:02.893Z,100844.28
2023-02-02T21:51:24.220Z,100858.88
2023-02-02T21:54:36.794Z,100834.03
2023-02-02T21:57:39.581Z,100848.91
2023-02-02T22:00:43.847Z,100848.91
2023-02-02T22:03:49.716Z,100860.31
2023-02-02T22:06:54.700Z,100865.22
2023-02-02T22:09:57.824Z,100880.84
2023-02-02T22:13:01.597Z,100879.38
2023-02-02T22:16:10.619Z,100877.63
2023-02-02T22:19:31.570Z,100884.91
2023-02-02T22:22:36.681Z,100891.41
2023-02-02T22:25:40.879Z,100896.22
2023-02-02T22:28:43.650Z,100906.38
2023-02-02T22:31:46.790Z,100913.16
2023-02-02T22:34:49.589Z,100909.88
2023-02-02T22:37:52.333Z,100929.03
2023-02-02T22:40:55.180Z,100945.13
2023-02-02T22:43:57.941Z,100945.94
2023-02-02T22:47:00.628Z,100958.34
2023-02-02T22:50:03.870Z,100959.38
2023-02-02T22:53:06.776Z,100956.91
2023-02-02T22:56:09.607Z,100966.53
2023-02-02T22:59:12.428Z,100971.06
2023-02-02T23:02:15.235Z,100960.06
2023-02-02T23:05:19.875Z,100964.59
2023-02-02T23:08:22.621Z,100971.13
2023-02-02T23:11:25.434Z,100964.56
2023-02-02T23:14:28.141Z,100965.78
2023-02-02T23:17:31.960Z,100954.00
2023-02-02T23:20:34.783Z,100960.28
2023-02-02T23:23:37.549Z,100969.41
2023-02-02T23:26:40.255Z,100974.75
2023-02-02T23:29:43.184Z,100972.81
2023-02-02T23:32:50.070Z,100967.34
2023-02-02T23:35:52.796Z,100970.53
2023-02-02T23:38:55.556Z,100980.16
2023-02-02T23:41:58.394Z,100990.09
2023-02-02T23:45:01.268Z,100985.69
2023-02-02T23:48:04.156Z,100994.00
2023-02-02T23:51:06.997Z,101007.13
2023-02-02T23:54:13.968Z,101015.94
2023-02-02T23:57:16.771Z,101016.25
